Time;durP1;ratioP1;P1;durP2;ratioP2;P2;SDS_P1;SDS_P2;PMS_P1;PMS_P2;Temp;Humidity;BMP_temperature;BMP_pressure;BME280_temperature;BME280_humidity;BME280_pressure;Samples;Min_cycle;Max_cycle;Signal;HPM_P1;HPM_P2
2023/12/23 00:00:09;;;;;;;;;45.25;40.00;;;;;4.06;55.18;97694.44;5058704;28;8881;-76
2023/12/23 00:02:58;;;;;;;;;41.75;37.75;;;;;3.76;55.33;97681.25;5037788;28;8856;-76
2023/12/23 00:05:27;;;;;;;;;40.50;37.75;;;;;3.65;56.68;97677.22;5047086;28;8849;-75
2023/12/23 00:07:56;;;;;;;;;36.60;33.40;;;;;3.43;55.68;97682.03;5052390;28;8869;-74
2023/12/23 00:10:26;;;;;;;;;18.40;18.40;;;;;3.13;57.55;97663.63;5052401;28;8858;-75
2023/12/23 00:12:56;;;;;;;;;25.80;23.40;;;;;3.12;58.46;97654.09;5084048;28;8858;-79
2023/12/23 00:15:25;;;;;;;;;23.00;19.40;;;;;3.02;57.75;97645.66;5050727;28;8862;-80
2023/12/23 00:17:54;;;;;;;;;22.80;21.20;;;;;3.00;57.13;97640.50;5050015;28;8870;-76
2023/12/23 00:20:24;;;;;;;;;23.40;19.40;;;;;3.10;56.75;97650.69;5048980;28;8896;-78
2023/12/23 00:22:55;;;;;;;;;18.40;16.60;;;;;3.19;56.88;97659.13;5056366;28;8865;-76
2023/12/23 00:25:25;;;;;;;;;19.80;17.60;;;;;3.29;57.44;97648.53;5048218;28;8959;-75
2023/12/23 00:27:54;;;;;;;;;23.00;19.20;;;;;3.13;57.39;97629.88;5030752;28;8946;-75
2023/12/23 00:30:25;;;;;;;;;15.60;15.60;;;;;2.98;56.79;97633.63;5052493;28;8942;-78
2023/12/23 00:32:53;;;;;;;;;14.20;14.20;;;;;2.73;58.50;97647.13;4997040;28;8988;-78
2023/12/23 00:35:23;;;;;;;;;25.80;20.40;;;;;2.90;58.01;97646.78;5047642;28;8862;-74
2023/12/23 00:37:52;;;;;;;;;15.60;14.20;;;;;3.10;57.09;97624.72;5042670;28;8844;-76
2023/12/23 00:40:21;;;;;;;;;15.60;12.40;;;;;3.17;57.78;97631.50;5048676;28;9586;-75
2023/12/23 00:42:50;;;;;;;;;18.00;18.00;;;;;3.07;56.24;97601.44;4995925;28;8861;-75
2023/12/23 00:45:20;;;;;;;;;19.80;15.20;;;;;3.04;57.62;97609.28;4999217;28;8900;-75
2023/12/23 00:47:50;;;;;;;;;14.60;14.60;;;;;3.20;57.81;97606.34;4977060;28;8869;-76
2023/12/23 00:50:19;;;;;;;;;13.40;12.20;;;;;3.09;57.00;97591.84;4952131;28;8885;-76
2023/12/23 00:52:48;;;;;;;;;18.60;18.00;;;;;2.89;56.38;97577.59;4966683;28;8858;-77
2023/12/23 00:55:17;;;;;;;;;16.20;16.00;;;;;3.09;57.57;97587.53;4962858;28;8847;-77
2023/12/23 00:57:46;;;;;;;;;17.00;15.20;;;;;3.15;56.53;97573.56;4938908;28;8965;-77
2023/12/23 01:00:17;;;;;;;;;15.80;15.00;;;;;3.08;56.30;97562.47;4986415;28;8867;-76
2023/12/23 01:02:46;;;;;;;;;20.60;17.60;;;;;3.27;56.92;97551.66;4924290;28;8866;-76
2023/12/23 01:05:17;;;;;;;;;17.80;17.60;;;;;2.94;56.24;97570.56;4965844;28;8865;-79
2023/12/23 01:07:45;;;;;;;;;16.20;14.40;;;;;2.85;57.90;97556.94;4951238;28;8866;-82
2023/12/23 01:10:15;;;;;;;;;16.80;16.60;;;;;3.16;57.78;97550.16;4986158;28;8890;-80
2023/12/23 01:12:44;;;;;;;;;18.20;14.40;;;;;2.81;56.51;97550.97;4953654;28;8879;-79
2023/12/23 01:15:13;;;;;;;;;13.40;11.80;;;;;3.15;57.59;97526.84;5028788;28;8858;-76
2023/12/23 01:17:42;;;;;;;;;15.60;15.60;;;;;3.10;57.10;97513.94;5015475;28;8862;-77
2023/12/23 01:20:12;;;;;;;;;19.00;18.00;;;;;3.30;56.26;97516.09;5033704;28;8892;-77
2023/12/23 01:22:42;;;;;;;;;21.60;18.20;;;;;3.27;55.77;97492.78;5079526;28;9675;-77
2023/12/23 01:25:11;;;;;;;;;15.80;15.20;;;;;3.22;57.22;97493.78;5058847;28;8858;-75
2023/12/23 01:27:40;;;;;;;;;13.80;11.00;;;;;3.35;56.81;97509.00;5069978;28;8858;-77
2023/12/23 01:30:10;;;;;;;;;18.40;15.00;;;;;3.11;55.76;97520.00;5086430;28;8898;-77
2023/12/23 01:32:39;;;;;;;;;20.20;17.80;;;;;3.20;55.62;97518.06;5019861;28;9024;-77
2023/12/23 01:35:09;;;;;;;;;20.20;15.40;;;;;3.26;55.88;97516.19;5050845;28;8870;-75
2023/12/23 01:37:37;;;;;;;;;20.80;19.80;;;;;3.40;55.94;97509.75;5049103;28;8865;-76
2023/12/23 01:40:09;;;;;;;;;14.00;12.60;;;;;3.51;55.00;97509.53;5049795;28;8841;-75
2023/12/23 01:42:39;;;;;;;;;12.80;11.20;;;;;3.69;55.25;97525.53;5051146;28;8863;-77
2023/12/23 01:45:10;;;;;;;;;12.20;12.20;;;;;3.84;55.60;97501.75;5060368;28;8860;-79
2023/12/23 01:47:42;;;;;;;;;17.00;16.00;;;;;3.99;56.11;97492.69;5034225;28;8917;-76
2023/12/23 01:50:12;;;;;;;;;16.60;16.00;;;;;3.61;55.54;97501.50;5080003;28;8859;-78
2023/12/23 01:52:42;;;;;;;;;15.60;13.80;;;;;3.82;56.17;97485.34;5086289;28;8872;-78
2023/12/23 01:55:13;;;;;;;;;13.60;13.60;;;;;4.01;55.89;97469.25;5055827;28;8967;-76
2023/12/23 01:57:42;;;;;;;;;15.00;15.00;;;;;4.01;54.32;97474.47;5022261;28;8854;-79
2023/12/23 02:00:12;;;;;;;;;13.20;10.00;;;;;4.12;55.37;97472.41;5011664;28;8871;-76
2023/12/23 02:02:42;;;;;;;;;18.40;17.20;;;;;4.28;55.08;97470.22;5011633;28;8853;-77
2023/12/23 02:05:12;;;;;;;;;14.60;14.40;;;;;4.32;53.73;97464.91;5027143;28;8864;-77
2023/12/23 02:07:44;;;;;;;;;15.80;15.80;;;;;4.40;52.93;97467.28;5030007;28;8854;-76
2023/12/23 02:10:15;;;;;;;;;17.00;16.80;;;;;4.36;54.22;97466.50;5031170;28;8850;-77
2023/12/23 02:12:59;;;;;;;;;17.00;17.00;;;;;4.58;54.27;97455.44;5047908;28;8870;-75
2023/12/23 02:15:43;;;;;;;;;15.60;15.40;;;;;4.55;52.83;97439.94;5030262;28;8844;-77
2023/12/23 02:18:13;;;;;;;;;13.60;13.60;;;;;4.60;54.08;97435.44;4978819;28;8862;-76
2023/12/23 02:20:43;;;;;;;;;13.60;11.20;;;;;4.64;53.72;97439.66;5000757;28;8860;-80
2023/12/23 02:23:13;;;;;;;;;19.60;15.40;;;;;4.72;53.67;97427.25;4949230;28;8858;-77
2023/12/23 02:25:45;;;;;;;;;11.80;10.80;;;;;4.74;53.14;97435.88;4949433;28;8874;-76
2023/12/23 02:28:18;;;;;;;;;12.00;10.80;;;;;4.31;52.51;97437.16;4949287;28;8850;-76
2023/12/23 02:30:51;;;;;;;;;12.80;11.40;;;;;4.43;52.77;97448.09;4981576;28;8842;-76
2023/12/23 02:33:20;;;;;;;;;12.00;12.00;;;;;4.45;52.52;97448.91;5016557;28;8852;-78
2023/12/23 02:35:52;;;;;;;;;9.40;9.40;;;;;4.50;52.83;97447.03;4995187;28;8942;-76
2023/12/23 02:38:25;;;;;;;;;11.00;8.40;;;;;4.54;52.13;97465.09;5027452;28;8896;-75
2023/12/23 02:40:54;;;;;;;;;15.00;12.40;;;;;3.98;51.62;97491.00;5045695;28;8852;-76
2023/12/23 02:43:23;;;;;;;;;14.60;13.40;;;;;3.65;54.78;97535.16;5027219;28;8957;-79
2023/12/23 02:45:52;;;;;;;;;13.20;13.20;;;;;3.67;54.95;97574.09;5045365;28;9602;-77
2023/12/23 02:48:20;;;;;;;;;15.80;12.80;;;;;3.69;54.40;97586.16;5034030;28;8861;-75
2023/12/23 02:50:49;;;;;;;;;17.40;15.20;;;;;3.63;55.79;97572.47;5071391;28;8862;-76
2023/12/23 02:53:18;;;;;;;;;11.80;11.80;;;;;3.82;55.64;97559.88;5050274;28;9580;-76
2023/12/23 02:55:49;;;;;;;;;16.80;15.20;;;;;3.83;55.50;97579.75;5051437;28;8850;-77
2023/12/23 02:58:18;;;;;;;;;15.00;15.00;;;;;3.83;56.04;97618.72;5067664;28;9638;-76
2023/12/23 03:00:47;;;;;;;;;17.80;16.80;;;;;3.58;56.27;97658.28;5068887;28;8931;-74
2023/12/23 03:03:16;;;;;;;;;12.40;11.80;;;;;3.45;58.08;97659.47;5068948;28;8858;-75
2023/12/23 03:05:45;;;;;;;;;15.00;13.00;;;;;3.40;58.53;97681.19;5067842;28;9011;-78
2023/12/23 03:08:14;;;;;;;;;19.80;18.00;;;;;3.43;58.47;97695.91;5066597;28;8877;-76
2023/12/23 03:10:43;;;;;;;;;18.60;17.40;;;;;3.39;58.69;97686.41;5051732;28;8869;-75
2023/12/23 03:13:13;;;;;;;;;16.60;15.80;;;;;3.20;60.13;97697.19;5069218;28;8838;-75
2023/12/23 03:15:42;;;;;;;;;14.60;13.00;;;;;3.08;60.20;97694.84;5070223;28;8866;-76
2023/12/23 03:18:11;;;;;;;;;15.20;15.20;;;;;3.13;60.51;97693.03;5041437;28;8919;-76
2023/12/23 03:20:41;;;;;;;;;20.00;20.00;;;;;3.11;60.81;97715.56;5070143;28;8861;-78
2023/12/23 03:23:09;;;;;;;;;23.60;20.80;;;;;3.20;60.62;97722.28;5063567;28;8850;-77
2023/12/23 03:25:39;;;;;;;;;21.60;19.40;;;;;3.09;60.71;97713.88;5067111;28;8862;-75
2023/12/23 03:28:08;;;;;;;;;22.60;20.60;;;;;3.19;60.48;97733.56;5067442;28;8935;-76
2023/12/23 03:30:39;;;;;;;;;22.40;20.00;;;;;3.08;60.45;97751.97;5017220;28;8866;-75
2023/12/23 03:33:07;;;;;;;;;21.60;18.60;;;;;3.07;61.04;97754.56;5033802;28;8909;-78
2023/12/23 03:35:37;;;;;;;;;20.40;18.00;;;;;3.19;60.38;97754.34;5084451;28;8927;-77
2023/12/23 03:38:07;;;;;;;;;22.00;20.80;;;;;3.31;60.21;97772.25;5056504;28;8862;-77
2023/12/23 03:40:36;;;;;;;;;19.60;16.40;;;;;3.26;59.63;97786.22;5050911;28;8923;-78
2023/12/23 03:43:05;;;;;;;;;20.80;20.60;;;;;3.18;60.17;97800.25;5072991;28;8862;-75
2023/12/23 03:45:34;;;;;;;;;24.60;21.80;;;;;3.32;59.58;97792.16;5067750;28;8885;-76
2023/12/23 03:48:06;;;;;;;;;21.20;19.80;;;;;3.46;59.76;97799.69;5067677;28;8854;-79
2023/12/23 03:50:35;;;;;;;;;20.60;20.20;;;;;3.36;59.58;97801.59;5084111;28;8850;-76
2023/12/23 03:53:05;;;;;;;;;23.40;22.40;;;;;3.36;58.96;97817.19;5057608;28;8868;-77
2023/12/23 03:55:34;;;;;;;;;20.80;20.80;;;;;3.52;58.49;97811.72;4997771;28;8887;-75
2023/12/23 03:58:03;;;;;;;;;23.40;22.40;;;;;3.64;59.21;97815.78;4996938;28;8869;-79
2023/12/23 04:00:33;;;;;;;;;21.60;19.60;;;;;3.48;58.74;97790.13;5047152;28;8877;-81
2023/12/23 04:03:02;;;;;;;;;19.60;18.80;;;;;3.63;58.41;97785.53;5063768;28;8983;-78
2023/12/23 04:05:33;;;;;;;;;24.60;21.40;;;;;3.75;58.31;97780.91;5063702;28;9625;-76
2023/12/23 04:08:02;;;;;;;;;19.40;18.20;;;;;3.79;57.91;97784.31;5057338;28;8845;-75
2023/12/23 04:10:31;;;;;;;;;24.00;20.80;;;;;3.52;58.16;97801.31;5000725;28;8857;-77
2023/12/23 04:13:00;;;;;;;;;21.20;18.60;;;;;3.45;57.53;97802.31;5054236;28;8857;-77
2023/12/23 04:15:29;;;;;;;;;20.00;18.60;;;;;2.76;59.52;97818.28;5049628;28;8861;-75
2023/12/23 04:17:58;;;;;;;;;24.80;23.20;;;;;2.51;61.32;97807.47;5025015;28;8866;-76
2023/12/23 04:20:28;;;;;;;;;23.20;21.80;;;;;2.70;60.73;97783.81;5042172;28;8853;-76
2023/12/23 04:22:58;;;;;;;;;16.80;15.00;;;;;2.98;60.31;97773.78;5008274;28;8964;-76
2023/12/23 04:25:28;;;;;;;;;25.20;22.80;;;;;3.15;60.93;97747.50;5008794;28;8854;-79
2023/12/23 04:27:57;;;;;;;;;18.00;16.20;;;;;3.31;60.02;97768.81;4976392;28;9630;-76
2023/12/23 04:30:26;;;;;;;;;51.00;43.00;;;;;3.46;59.69;97797.09;5009204;28;8869;-76
2023/12/23 04:32:55;;;;;;;;;44.75;41.75;;;;;3.63;58.96;97804.56;4989734;28;8844;-75
2023/12/23 04:35:25;;;;;;;;;64.25;52.75;;;;;3.78;58.55;97808.56;4989599;28;8828;-82
2023/12/23 04:37:55;;;;;;;;;44.75;38.25;;;;;3.85;58.42;97809.31;4990725;28;8982;-78
2023/12/23 04:40:26;;;;;;;;;23.00;21.20;;;;;3.92;57.96;97806.53;5009362;28;8862;-75
2023/12/23 04:42:55;;;;;;;;;31.80;21.20;;;;;3.92;58.27;97792.66;4993368;28;8947;-75
2023/12/23 04:45:24;;;;;;;;;16.80;16.80;;;;;3.84;58.18;97812.78;4994881;28;9568;-76
2023/12/23 04:47:53;;;;;;;;;27.00;20.40;;;;;3.84;58.12;97810.19;5011698;28;8846;-78
2023/12/23 04:50:22;;;;;;;;;27.00;27.00;;;;;3.84;57.90;97850.03;5011513;28;8869;-79
2023/12/23 04:52:52;;;;;;;;;24.40;24.00;;;;;3.85;58.26;97859.53;5011176;28;8877;-80
2023/12/23 04:55:27;;;;;;;;;18.60;17.00;;;;;3.78;57.26;97868.34;5017378;28;9082;-79
2023/12/23 04:57:55;;;;;;;;;20.40;19.20;;;;;3.90;57.74;97877.63;5051240;28;8852;-79
2023/12/23 05:00:25;;;;;;;;;21.00;20.00;;;;;3.97;56.83;97889.63;5032894;28;8909;-80
2023/12/23 05:02:53;;;;;;;;;19.40;17.00;;;;;4.01;57.69;97890.41;5057868;28;8852;-76
2023/12/23 05:05:24;;;;;;;;;15.60;14.40;;;;;3.93;56.75;97898.38;5052245;28;8847;-76
2023/12/23 05:07:53;;;;;;;;;19.00;15.80;;;;;3.76;57.69;97904.75;5050475;28;8850;-78
2023/12/23 05:10:22;;;;;;;;;14.80;14.80;;;;;3.84;57.21;97922.78;4999964;28;8992;-80
2023/12/23 05:12:53;;;;;;;;;15.60;13.80;;;;;3.74;56.96;97911.72;5065970;28;8861;-76
2023/12/23 05:15:22;;;;;;;;;3.80;3.80;;;;;3.69;56.03;97912.72;5049444;28;8891;-76
2023/12/23 05:17:51;;;;;;;;;14.80;14.20;;;;;3.50;58.18;97930.38;5049295;28;8838;-76
2023/12/23 05:20:20;;;;;;;;;14.60;14.20;;;;;3.37;57.26;97938.38;5032183;28;8916;-76
2023/12/23 05:22:49;;;;;;;;;14.00;12.00;;;;;3.17;57.59;97953.44;5058242;28;8874;-79
2023/12/23 05:25:19;;;;;;;;;14.40;10.60;;;;;3.39;57.64;97943.53;5024433;28;8858;-76
2023/12/23 05:27:48;;;;;;;;;14.80;12.20;;;;;3.22;58.22;97942.97;5034223;28;8878;-77
2023/12/23 05:30:18;;;;;;;;;12.20;10.60;;;;;3.05;58.15;97957.06;5052174;28;8866;-77
2023/12/23 05:32:48;;;;;;;;;12.40;12.00;;;;;2.77;59.55;97986.06;4982084;28;8991;-77
2023/12/23 05:35:17;;;;;;;;;18.80;16.00;;;;;2.92;59.57;97999.69;5029241;28;9735;-77
2023/12/23 05:37:46;;;;;;;;;11.40;10.40;;;;;2.36;60.70;98013.41;5010546;28;8922;-76
2023/12/23 05:40:16;;;;;;;;;7.40;7.40;;;;;1.78;63.21;98035.66;5028464;28;8893;-78
2023/12/23 05:42:45;;;;;;;;;13.00;11.20;;;;;2.01;62.83;98058.75;5012225;28;8876;-78
2023/12/23 05:45:15;;;;;;;;;8.60;8.60;;;;;1.79;64.28;98046.88;5028613;28;8861;-77
2023/12/23 05:47:45;;;;;;;;;11.60;11.60;;;;;1.95;64.11;98065.72;5012119;28;9693;-75
2023/12/23 05:50:15;;;;;;;;;14.00;11.00;;;;;2.19;63.46;98077.56;5011612;28;8856;-74
2023/12/23 05:52:45;;;;;;;;;12.40;11.40;;;;;1.84;63.62;98078.78;5027037;28;9041;-77
2023/12/23 05:55:14;;;;;;;;;15.40;14.00;;;;;1.54;65.21;98080.78;5027053;28;8882;-77
2023/12/23 05:57:43;;;;;;;;;13.40;10.20;;;;;1.22;66.26;98088.78;5027558;28;9747;-75
2023/12/23 06:00:13;;;;;;;;;11.20;11.00;;;;;1.39;66.73;98093.81;5011160;28;8856;-78
2023/12/23 06:02:42;;;;;;;;;13.20;12.00;;;;;1.82;65.80;98106.44;4947837;28;8849;-76
2023/12/23 06:05:13;;;;;;;;;12.60;11.20;;;;;1.90;64.74;98127.97;5066899;28;8858;-76
2023/12/23 06:07:42;;;;;;;;;13.80;12.20;;;;;1.99;64.21;98133.06;5068045;28;8996;-79
2023/12/23 06:10:11;;;;;;;;;14.00;13.00;;;;;2.34;63.76;98141.38;5059579;28;8857;-81
2023/12/23 06:12:40;;;;;;;;;3.20;2.00;;;;;2.45;63.52;98160.28;5066509;28;8849;-77
2023/12/23 06:15:10;;;;;;;;;10.00;9.80;;;;;2.43;62.80;98175.00;5031749;28;8857;-76
2023/12/23 06:17:39;;;;;;;;;14.00;13.20;;;;;2.37;63.15;98162.97;5052389;28;8872;-76
2023/12/23 06:20:09;;;;;;;;;14.20;14.20;;;;;2.53;63.12;98166.25;5053393;28;8857;-76
2023/12/23 06:22:39;;;;;;;;;17.40;15.20;;;;;2.49;62.79;98172.34;5058124;28;9694;-77
2023/12/23 06:25:09;;;;;;;;;18.20;13.60;;;;;1.87;65.09;98202.28;5046790;28;8884;-77
2023/12/23 06:27:38;;;;;;;;;11.60;11.60;;;;;1.71;66.16;98214.47;5053307;28;8890;-78
2023/12/23 06:30:08;;;;;;;;;13.20;11.00;;;;;2.03;65.40;98230.66;5036354;28;8863;-78
2023/12/23 06:32:37;;;;;;;;;19.00;16.60;;;;;2.16;64.53;98248.69;5033568;28;8869;-77
2023/12/23 06:35:07;;;;;;;;;14.40;12.80;;;;;1.31;68.04;98256.13;5050763;28;8849;-78
2023/12/23 06:37:36;;;;;;;;;18.00;17.00;;;;;0.97;69.62;98276.94;5015991;28;8873;-78
2023/12/23 06:40:09;;;;;;;;;12.00;11.60;;;;;0.56;71.60;98286.47;5051998;28;8841;-75
2023/12/23 06:42:37;;;;;;;;;21.80;19.80;;;;;0.69;71.50;98284.75;4991243;28;8845;-77
2023/12/23 06:45:07;;;;;;;;;13.80;13.20;;;;;0.50;73.25;98311.47;5051471;28;8849;-78
2023/12/23 06:47:36;;;;;;;;;12.80;11.60;;;;;0.32;74.41;98320.09;5065949;28;8893;-76
2023/12/23 06:50:07;;;;;;;;;16.20;14.40;;;;;0.35;75.56;98318.38;5067953;28;8846;-76
2023/12/23 06:52:36;;;;;;;;;9.60;9.60;;;;;0.20;77.16;98326.97;5019243;28;8846;-77
2023/12/23 06:55:07;;;;;;;;;12.40;10.20;;;;;0.14;78.79;98331.25;5015268;28;8887;-74
2023/12/23 06:57:36;;;;;;;;;11.80;8.80;;;;;-0.15;81.18;98348.41;5065382;28;8882;-76
2023/12/23 07:00:08;;;;;;;;;10.20;9.20;;;;;0.08;81.96;98326.94;5069493;28;8850;-76
2023/12/23 07:02:37;;;;;;;;;7.40;6.80;;;;;0.05;81.97;98332.97;5034162;28;8858;-76
2023/12/23 07:05:06;;;;;;;;;9.60;9.00;;;;;-0.12;82.26;98352.75;5045530;28;8837;-76
2023/12/23 07:07:35;;;;;;;;;9.00;8.20;;;;;-0.19;83.26;98356.16;5026163;28;9026;-77
2023/12/23 07:10:05;;;;;;;;;7.60;6.40;;;;;-0.21;83.01;98365.63;5025655;28;9617;-80
2023/12/23 07:12:37;;;;;;;;;9.00;8.00;;;;;-0.33;85.21;98356.97;5024459;28;8957;-79
2023/12/23 07:15:08;;;;;;;;;16.00;10.20;;;;;-0.34;85.75;98373.31;5029488;28;8848;-77
2023/12/23 07:17:37;;;;;;;;;8.60;8.00;;;;;-0.21;85.46;98379.38;5028085;28;8870;-79
2023/12/23 07:20:11;;;;;;;;;6.20;6.20;;;;;-0.39;86.00;98382.78;5008988;28;8877;-79
2023/12/23 07:22:40;;;;;;;;;9.40;8.40;;;;;-0.36;86.31;98398.25;4993639;28;8956;-78
2023/12/23 07:25:09;;;;;;;;;6.20;6.20;;;;;-0.54;86.48;98419.69;5025906;28;8859;-77
2023/12/23 07:27:39;;;;;;;;;6.20;5.00;;;;;-0.52;87.96;98405.06;5026486;28;8898;-79
2023/12/23 07:30:10;;;;;;;;;5.00;5.00;;;;;-0.65;88.48;98410.13;5003568;28;8846;-79
2023/12/23 07:32:39;;;;;;;;;11.20;7.60;;;;;-0.67;89.17;98420.47;4996305;28;9010;-80
2023/12/23 07:35:08;;;;;;;;;9.00;8.00;;;;;-0.58;89.29;98436.03;5028192;28;8855;-75
2023/12/23 07:37:38;;;;;;;;;8.00;6.20;;;;;-0.73;89.94;98460.00;5044276;28;8888;-79
2023/12/23 07:40:08;;;;;;;;;7.00;7.00;;;;;-0.69;90.07;98463.47;5016397;28;8836;-79
2023/12/23 07:42:37;;;;;;;;;6.00;6.00;;;;;-0.60;89.77;98468.69;5013691;28;8934;-79
2023/12/23 07:45:09;;;;;;;;;9.40;5.80;;;;;-0.45;89.95;98485.13;5051285;28;8879;-78
2023/12/23 07:47:37;;;;;;;;;7.40;6.80;;;;;-0.22;88.22;98485.25;5059842;28;8873;-80
2023/12/23 07:50:07;;;;;;;;;5.00;5.00;;;;;-0.40;88.26;98493.78;5031256;28;8891;-78
2023/12/23 07:52:36;;;;;;;;;5.00;5.00;;;;;-0.37;88.63;98499.81;5059808;28;8889;-81
2023/12/23 07:55:06;;;;;;;;;4.40;4.40;;;;;-0.46;88.22;98527.28;5030490;28;8837;-79
2023/12/23 07:57:35;;;;;;;;;6.40;5.40;;;;;-0.49;88.90;98525.53;5075892;28;8950;-79
2023/12/23 08:00:06;;;;;;;;;6.80;5.40;;;;;-0.44;88.74;98531.63;5030839;28;8983;-78
2023/12/23 08:02:36;;;;;;;;;8.00;8.00;;;;;-0.50;88.84;98539.31;5047773;28;8869;-78
2023/12/23 08:05:05;;;;;;;;;4.60;4.40;;;;;-0.36;87.71;98544.56;5064566;28;8849;-79
2023/12/23 08:07:37;;;;;;;;;6.60;5.00;;;;;-0.58;88.37;98549.59;5036479;28;8992;-79
2023/12/23 08:10:07;;;;;;;;;6.40;4.40;;;;;-0.49;87.50;98558.25;5069426;28;8953;-79
2023/12/23 08:12:37;;;;;;;;;8.00;6.20;;;;;-0.44;87.70;98565.19;5026015;28;8898;-77
2023/12/23 08:15:07;;;;;;;;;9.00;6.40;;;;;-0.58;86.38;98564.19;5012226;28;9611;-80
2023/12/23 08:17:37;;;;;;;;;6.20;5.00;;;;;-0.43;86.42;98572.06;5025616;28;8880;-82
2023/12/23 08:20:08;;;;;;;;;6.60;6.60;;;;;-0.60;86.60;98583.97;5025235;28;8837;-80
2023/12/23 08:22:37;;;;;;;;;4.20;2.00;;;;;-0.69;86.33;98589.94;5006406;28;8876;-77
2023/12/23 08:25:06;;;;;;;;;3.20;3.20;;;;;-0.67;86.04;98605.41;5008614;28;8850;-79
2023/12/23 08:27:35;;;;;;;;;5.00;4.00;;;;;-0.77;86.47;98600.16;5006976;28;8862;-79
2023/12/23 08:30:05;;;;;;;;;2.00;2.00;;;;;-0.83;86.28;98618.16;5004215;28;8867;-79
2023/12/23 08:32:34;;;;;;;;;4.60;2.40;;;;;-0.66;85.80;98630.38;4947754;28;8856;-81
2023/12/23 08:35:06;;;;;;;;;3.20;3.20;;;;;-0.61;85.57;98629.56;4916408;29;8881;-78
2023/12/23 08:37:35;;;;;;;;;0.00;0.00;;;;;-0.91;85.63;98636.16;4898361;29;9006;-78
2023/12/23 08:40:05;;;;;;;;;1.00;1.00;;;;;-0.78;86.18;98662.94;4930400;29;8876;-79
2023/12/23 08:42:34;;;;;;;;;4.00;4.00;;;;;-0.78;85.61;98662.09;4930412;29;8896;-78
2023/12/23 08:45:04;;;;;;;;;2.20;1.40;;;;;-0.83;85.68;98658.59;4951944;28;8863;-80
2023/12/23 08:47:34;;;;;;;;;0.80;0.80;;;;;-0.80;85.38;98650.91;4942522;28;8920;-80
2023/12/23 08:50:06;;;;;;;;;5.20;4.00;;;;;-0.08;82.72;98656.69;4977228;28;9049;-76
2023/12/23 08:52:35;;;;;;;;;2.00;2.00;;;;;-0.33;83.00;98673.72;4993599;28;9015;-75
2023/12/23 08:55:04;;;;;;;;;4.00;4.00;;;;;-0.15;82.64;98675.56;5038061;28;8951;-74
2023/12/23 08:57:33;;;;;;;;;19.20;18.00;;;;;-0.20;83.25;98675.56;5019799;28;8886;-75
2023/12/23 09:00:05;;;;;;;;;2.00;2.00;;;;;-0.27;83.04;98676.34;4993117;28;8887;-75
2023/12/23 09:02:35;;;;;;;;;3.60;3.60;;;;;-0.35;83.02;98683.13;5010037;28;8857;-75
2023/12/23 09:05:06;;;;;;;;;6.00;4.60;;;;;-0.27;82.95;98693.56;4993232;28;8877;-75
2023/12/23 09:07:36;;;;;;;;;6.80;5.00;;;;;-0.38;83.59;98681.41;4993234;28;8899;-75
2023/12/23 09:10:07;;;;;;;;;2.00;2.00;;;;;-0.12;82.85;98676.47;4993418;28;8845;-75
2023/12/23 09:12:36;;;;;;;;;0.80;0.80;;;;;-0.18;82.14;98679.00;4958746;28;8856;-78
2023/12/23 09:15:06;;;;;;;;;5.00;4.80;;;;;0.18;80.91;98656.00;5031706;28;9576;-80
2023/12/23 09:17:34;;;;;;;;;3.60;3.60;;;;;0.50;80.31;98666.56;5038984;28;8908;-77
2023/12/23 09:20:06;;;;;;;;;4.60;4.60;;;;;0.63;79.51;98665.78;4983578;28;8879;-77
2023/12/23 09:22:35;;;;;;;;;4.80;4.80;;;;;0.99;78.79;98656.47;5048758;28;8974;-75
2023/12/23 09:25:05;;;;;;;;;7.20;5.20;;;;;1.30;78.32;98633.25;5032153;28;8902;-79
2023/12/23 09:27:34;;;;;;;;;14.60;14.60;;;;;1.82;77.64;98641.06;5028820;28;8978;-75
2023/12/23 09:30:03;;;;;;;;;20.20;19.00;;;;;2.19;76.36;98635.84;4994909;28;8931;-77
2023/12/23 09:32:32;;;;;;;;;19.80;18.80;;;;;2.49;75.97;98640.97;5054675;28;8828;-77
2023/12/23 09:35:01;;;;;;;;;12.20;12.00;;;;;2.80;75.46;98636.53;5053248;28;9988;-75
2023/12/23 09:37:36;;;;;;;;;12.80;12.80;;;;;2.86;74.05;98635.63;5052296;28;8867;-79
2023/12/23 09:40:07;;;;;;;;;10.20;9.20;;;;;3.07;74.37;98640.75;5052049;28;8935;-77
2023/12/23 09:42:36;;;;;;;;;9.60;9.60;;;;;3.00;72.59;98652.03;5051986;28;8847;-79
2023/12/23 09:45:07;;;;;;;;;23.80;22.20;;;;;2.91;73.06;98657.25;5030295;28;8838;-76
2023/12/23 09:47:36;;;;;;;;;17.00;15.60;;;;;3.07;72.63;98661.50;5032485;28;8950;-78
2023/12/23 09:50:06;;;;;;;;;16.80;15.40;;;;;3.12;71.92;98672.72;5019885;28;8863;-77
2023/12/23 09:52:36;;;;;;;;;15.40;14.00;;;;;2.82;73.06;98663.34;5051845;28;8890;-80
2023/12/23 09:55:11;;;;;;;;;12.20;12.20;;;;;3.11;72.55;98659.75;5003276;28;8843;-77
2023/12/23 09:57:40;;;;;;;;;14.20;13.00;;;;;3.34;72.65;98641.47;5033201;28;9018;-77
2023/12/23 10:00:11;;;;;;;;;13.00;12.00;;;;;3.51;71.95;98651.78;5035276;28;8833;-76
2023/12/23 10:02:41;;;;;;;;;12.80;12.80;;;;;3.77;71.45;98646.34;5035022;28;8901;-77
2023/12/23 10:05:10;;;;;;;;;19.40;17.00;;;;;3.38;70.32;98643.16;5053088;28;8994;-79
2023/12/23 10:07:41;;;;;;;;;19.40;19.20;;;;;3.64;70.80;98631.72;5083673;28;9658;-75
2023/12/23 10:10:12;;;;;;;;;21.40;20.60;;;;;2.48;71.38;98647.88;5069445;28;8862;-79
2023/12/23 10:12:41;;;;;;;;;21.00;19.40;;;;;2.95;71.63;98627.81;5071268;28;9030;-79
2023/12/23 10:15:11;;;;;;;;;79.50;62.25;;;;;3.17;71.69;98638.97;5068049;28;8846;-77
2023/12/23 10:17:40;;;;;;;;;22.20;19.60;;;;;3.38;71.56;98632.75;5069027;28;8885;-79
2023/12/23 10:20:12;;;;;;;;;13.40;12.60;;;;;2.93;70.78;98647.72;5051785;28;8992;-77
2023/12/23 10:22:45;;;;;;;;;9.20;6.60;;;;;2.84;69.42;98630.44;5059706;28;8959;-75
2023/12/23 10:25:15;;;;;;;;;7.80;7.80;;;;;3.19;70.29;98619.03;5067826;28;8886;-74
2023/12/23 10:27:44;;;;;;;;;8.80;8.80;;;;;3.11;69.99;98616.47;5080343;28;8855;-73
2023/12/23 10:30:15;;;;;;;;;8.40;8.20;;;;;2.64;71.04;98622.75;5063147;28;8928;-78
2023/12/23 10:32:48;;;;;;;;;14.20;12.20;;;;;3.08;70.62;98611.28;5051503;28;8852;-77
2023/12/23 10:35:21;;;;;;;;;13.40;11.80;;;;;3.11;69.83;98607.81;5066537;28;8982;-75
2023/12/23 10:37:59;;;;;;;;;17.80;16.60;;;;;3.27;69.56;98608.59;5083287;28;9595;-77
2023/12/23 10:40:30;;;;;;;;;31.00;27.00;;;;;3.37;70.47;98599.84;5074338;28;9026;-75
2023/12/23 10:43:01;;;;;;;;;20.60;19.80;;;;;2.85;69.99;98608.81;5066471;28;8896;-75
2023/12/23 10:45:32;;;;;;;;;16.60;16.00;;;;;2.95;69.73;98607.03;5033823;28;8834;-76
2023/12/23 10:48:06;;;;;;;;;15.20;15.20;;;;;3.13;70.44;98600.91;5042997;28;8998;-78
2023/12/23 10:50:36;;;;;;;;;14.00;13.60;;;;;3.30;70.05;98601.66;5050638;28;9819;-76
2023/12/23 10:53:08;;;;;;;;;13.20;12.60;;;;;3.46;68.18;98568.66;5067231;28;9601;-77
2023/12/23 10:55:39;;;;;;;;;17.00;13.80;;;;;3.64;68.30;98590.16;5063914;28;8881;-75
2023/12/23 10:58:10;;;;;;;;;13.00;11.40;;;;;3.52;68.37;98565.13;5031261;28;8860;-75
2023/12/23 11:00:39;;;;;;;;;14.20;12.60;;;;;3.26;69.47;98578.28;5048095;28;8849;-76
2023/12/23 11:03:34;;;;;;;;;13.20;11.80;;;;;3.52;69.22;98567.75;5047330;28;8854;-78
2023/12/23 11:06:31;;;;;;;;;11.40;11.40;;;;;3.63;68.80;98555.53;5046905;28;8846;-77
2023/12/23 11:09:27;;;;;;;;;17.20;14.20;;;;;3.75;67.86;98551.94;5059768;28;8852;-75
2023/12/23 11:12:21;;;;;;;;;15.60;15.00;;;;;3.65;67.55;98542.50;5053239;28;8878;-75
2023/12/23 11:15:15;;;;;;;;;11.20;11.20;;;;;3.64;67.23;98527.78;5057291;28;8846;-76
2023/12/23 11:18:10;;;;;;;;;14.20;14.00;;;;;3.41;67.27;98523.63;5046349;28;8881;-78
2023/12/23 11:21:16;;;;;;;;;14.60;14.00;;;;;3.39;68.46;98546.16;5059273;28;8885;-78
2023/12/23 11:24:36;;;;;;;;;16.00;15.80;;;;;3.42;68.01;98540.13;5046274;28;8873;-76
2023/12/23 11:27:08;;;;;;;;;14.60;14.60;;;;;3.47;67.79;98547.00;5046042;28;8874;-76
2023/12/23 11:29:37;;;;;;;;;14.60;14.60;;;;;3.61;68.45;98541.69;5045756;28;8862;-76
2023/12/23 11:32:13;;;;;;;;;18.40;13.60;;;;;3.87;66.93;98548.38;5023236;28;9640;-76
2023/12/23 11:34:43;;;;;;;;;17.40;15.80;;;;;3.84;66.86;98536.25;5047445;28;8887;-77
2023/12/23 11:37:12;;;;;;;;;14.20;13.20;;;;;3.96;66.48;98533.53;5028814;28;9629;-75
2023/12/23 11:39:44;;;;;;;;;10.40;10.20;;;;;3.93;66.58;98532.72;5039345;28;8852;-77
2023/12/23 11:42:14;;;;;;;;;12.00;10.80;;;;;4.31;66.46;98536.63;5026172;28;8962;-78
2023/12/23 11:44:46;;;;;;;;;11.00;11.00;;;;;4.30;63.83;98529.69;4993773;28;8867;-76
2023/12/23 11:47:16;;;;;;;;;15.20;14.60;;;;;4.55;65.46;98533.72;5017707;28;8873;-70
2023/12/23 11:49:45;;;;;;;;;20.40;18.60;;;;;4.26;63.84;98544.50;5047619;28;8836;-72
2023/12/23 11:52:14;;;;;;;;;37.00;30.20;;;;;4.30;64.26;98547.91;5044204;28;8885;-75